sensor_id;sensor_type;location;lat;lon;timestamp;P1;durP1;ratioP1;P2;durP2;ratioP2
20743;SDS011;56303;52.160;-0.428;2023-05-10T00:00:20;11.23;;;7.83;;
20743;SDS011;56303;52.160;-0.428;2023-05-10T00:02:48;9.57;;;7.40;;
20743;SDS011;56303;52.160;-0.428;2023-05-10T00:05:15;14.10;;;8.17;;
20743;SDS011;56303;52.160;-0.428;2023-05-10T00:07:42;11.13;;;6.90;;
20743;SDS011;56303;52.160;-0.428;2023-05-10T00:10:12;10.33;;;7.07;;
20743;SDS011;56303;52.160;-0.428;2023-05-10T00:12:39;12.13;;;8.27;;
20743;SDS011;56303;52.160;-0.428;2023-05-10T00:15:06;11.70;;;8.53;;
20743;SDS011;56303;52.160;-0.428;2023-05-10T00:17:34;11.90;;;8.10;;
20743;SDS011;56303;52.160;-0.428;2023-05-10T00:20:01;10.87;;;7.67;;
20743;SDS011;56303;52.160;-0.428;2023-05-10T00:22:28;12.17;;;8.17;;
20743;SDS011;56303;52.160;-0.428;2023-05-10T00:24:55;14.40;;;8.50;;
20743;SDS011;56303;52.160;-0.428;2023-05-10T00:27:21;15.43;;;9.67;;
20743;SDS011;56303;52.160;-0.428;2023-05-10T00:29:48;11.10;;;8.93;;
20743;SDS011;56303;52.160;-0.428;2023-05-10T00:32:15;11.57;;;8.63;;
20743;SDS011;56303;52.160;-0.428;2023-05-10T00:34:42;14.07;;;8.90;;
20743;SDS011;56303;52.160;-0.428;2023-05-10T00:37:09;12.47;;;8.07;;
20743;SDS011;56303;52.160;-0.428;2023-05-10T00:39:36;10.63;;;7.63;;
20743;SDS011;56303;52.160;-0.428;2023-05-10T00:42:03;15.63;;;8.57;;
20743;SDS011;56303;52.160;-0.428;2023-05-10T00:44:30;12.70;;;8.83;;
20743;SDS011;56303;52.160;-0.428;2023-05-10T00:46:57;11.47;;;8.10;;
20743;SDS011;56303;52.160;-0.428;2023-05-10T00:49:25;12.40;;;8.53;;
20743;SDS011;56303;52.160;-0.428;2023-05-10T00:51:52;15.93;;;9.17;;
20743;SDS011;56303;52.160;-0.428;2023-05-10T00:54:19;11.63;;;8.67;;
20743;SDS011;56303;52.160;-0.428;2023-05-10T00:56:46;13.43;;;8.90;;
20743;SDS011;56303;52.160;-0.428;2023-05-10T00:59:15;12.37;;;8.63;;
20743;SDS011;56303;52.160;-0.428;2023-05-10T01:01:46;12.47;;;8.40;;
20743;SDS011;56303;52.160;-0.428;2023-05-10T01:04:14;13.83;;;8.60;;
20743;SDS011;56303;52.160;-0.428;2023-05-10T01:06:41;19.63;;;8.43;;
20743;SDS011;56303;52.160;-0.428;2023-05-10T01:09:09;13.67;;;8.10;;
20743;SDS011;56303;52.160;-0.428;2023-05-10T01:11:38;14.17;;;8.70;;
20743;SDS011;56303;52.160;-0.428;2023-05-10T01:14:06;12.40;;;8.10;;
20743;SDS011;56303;52.160;-0.428;2023-05-10T01:16:34;15.67;;;8.27;;
20743;SDS011;56303;52.160;-0.428;2023-05-10T01:19:05;12.00;;;7.60;;
20743;SDS011;56303;52.160;-0.428;2023-05-10T01:21:48;11.40;;;7.27;;
20743;SDS011;56303;52.160;-0.428;2023-05-10T01:30:47;16.20;;;8.50;;
20743;SDS011;56303;52.160;-0.428;2023-05-10T01:33:26;17.00;;;8.63;;
20743;SDS011;56303;52.160;-0.428;2023-05-10T01:45:11;11.53;;;8.20;;
20743;SDS011;56303;52.160;-0.428;2023-05-10T01:47:12;11.10;;;7.23;;
20743;SDS011;56303;52.160;-0.428;2023-05-10T01:49:44;12.47;;;7.33;;
20743;SDS011;56303;52.160;-0.428;2023-05-10T01:55:11;12.57;;;8.03;;
20743;SDS011;56303;52.160;-0.428;2023-05-10T01:57:42;13.33;;;7.67;;
20743;SDS011;56303;52.160;-0.428;2023-05-10T02:00:11;12.90;;;7.47;;
20743;SDS011;56303;52.160;-0.428;2023-05-10T02:02:40;10.30;;;6.60;;
20743;SDS011;56303;52.160;-0.428;2023-05-10T02:05:11;11.53;;;6.43;;
20743;SDS011;56303;52.160;-0.428;2023-05-10T02:07:39;12.77;;;6.47;;
20743;SDS011;56303;52.160;-0.428;2023-05-10T02:10:08;13.40;;;6.63;;
20743;SDS011;56303;52.160;-0.428;2023-05-10T02:12:37;16.43;;;5.63;;
20743;SDS011;56303;52.160;-0.428;2023-05-10T02:15:08;13.60;;;6.40;;
20743;SDS011;56303;52.160;-0.428;2023-05-10T02:17:37;15.37;;;6.00;;
20743;SDS011;56303;52.160;-0.428;2023-05-10T02:20:05;11.87;;;6.17;;
20743;SDS011;56303;52.160;-0.428;2023-05-10T02:22:34;15.83;;;6.33;;
20743;SDS011;56303;52.160;-0.428;2023-05-10T02:25:01;13.07;;;5.90;;
20743;SDS011;56303;52.160;-0.428;2023-05-10T02:27:30;10.47;;;5.33;;
20743;SDS011;56303;52.160;-0.428;2023-05-10T02:29:57;16.43;;;6.53;;
20743;SDS011;56303;52.160;-0.428;2023-05-10T02:32:25;12.73;;;5.57;;
20743;SDS011;56303;52.160;-0.428;2023-05-10T02:34:54;13.00;;;7.07;;
20743;SDS011;56303;52.160;-0.428;2023-05-10T02:37:22;10.67;;;5.57;;
20743;SDS011;56303;52.160;-0.428;2023-05-10T02:39:50;8.43;;;5.73;;
20743;SDS011;56303;52.160;-0.428;2023-05-10T02:42:22;10.53;;;6.20;;
20743;SDS011;56303;52.160;-0.428;2023-05-10T02:44:53;13.03;;;6.47;;
20743;SDS011;56303;52.160;-0.428;2023-05-10T02:47:36;14.93;;;6.17;;
20743;SDS011;56303;52.160;-0.428;2023-05-10T02:50:03;15.23;;;6.83;;
20743;SDS011;56303;52.160;-0.428;2023-05-10T02:52:39;12.77;;;6.83;;
20743;SDS011;56303;52.160;-0.428;2023-05-10T02:55:11;12.87;;;6.07;;
20743;SDS011;56303;52.160;-0.428;2023-05-10T02:57:51;14.50;;;6.67;;
20743;SDS011;56303;52.160;-0.428;2023-05-10T03:00:23;11.27;;;6.83;;
20743;SDS011;56303;52.160;-0.428;2023-05-10T03:02:51;11.63;;;6.03;;
20743;SDS011;56303;52.160;-0.428;2023-05-10T03:05:18;15.20;;;7.17;;
20743;SDS011;56303;52.160;-0.428;2023-05-10T03:07:46;12.63;;;6.83;;
20743;SDS011;56303;52.160;-0.428;2023-05-10T03:10:13;15.00;;;7.03;;
20743;SDS011;56303;52.160;-0.428;2023-05-10T03:12:52;15.13;;;8.30;;
20743;SDS011;56303;52.160;-0.428;2023-05-10T03:18:33;26.70;;;9.07;;
20743;SDS011;56303;52.160;-0.428;2023-05-10T03:21:25;19.90;;;8.00;;
20743;SDS011;56303;52.160;-0.428;2023-05-10T03:23:58;13.17;;;8.00;;
20743;SDS011;56303;52.160;-0.428;2023-05-10T03:26:28;15.20;;;7.67;;
20743;SDS011;56303;52.160;-0.428;2023-05-10T03:28:55;16.17;;;7.73;;
20743;SDS011;56303;52.160;-0.428;2023-05-10T03:31:25;17.67;;;8.43;;
20743;SDS011;56303;52.160;-0.428;2023-05-10T03:33:52;14.63;;;7.47;;
20743;SDS011;56303;52.160;-0.428;2023-05-10T03:36:19;15.70;;;8.50;;
20743;SDS011;56303;52.160;-0.428;2023-05-10T03:38:46;14.23;;;7.90;;
20743;SDS011;56303;52.160;-0.428;2023-05-10T03:41:13;15.93;;;7.57;;
20743;SDS011;56303;52.160;-0.428;2023-05-10T03:43:40;12.50;;;7.63;;
20743;SDS011;56303;52.160;-0.428;2023-05-10T03:46:07;15.17;;;7.83;;
20743;SDS011;56303;52.160;-0.428;2023-05-10T03:48:34;15.00;;;7.37;;
20743;SDS011;56303;52.160;-0.428;2023-05-10T03:51:01;12.10;;;7.53;;
20743;SDS011;56303;52.160;-0.428;2023-05-10T03:53:28;14.53;;;7.23;;
20743;SDS011;56303;52.160;-0.428;2023-05-10T03:55:55;13.87;;;7.07;;
20743;SDS011;56303;52.160;-0.428;2023-05-10T03:58:21;14.27;;;8.40;;
20743;SDS011;56303;52.160;-0.428;2023-05-10T04:00:48;16.43;;;8.63;;
20743;SDS011;56303;52.160;-0.428;2023-05-10T04:03:15;11.63;;;7.40;;
20743;SDS011;56303;52.160;-0.428;2023-05-10T04:05:43;15.27;;;8.07;;
20743;SDS011;56303;52.160;-0.428;2023-05-10T04:08:09;17.53;;;8.43;;
20743;SDS011;56303;52.160;-0.428;2023-05-10T04:10:36;15.70;;;8.03;;
20743;SDS011;56303;52.160;-0.428;2023-05-10T04:13:03;13.37;;;8.20;;
20743;SDS011;56303;52.160;-0.428;2023-05-10T04:15:30;12.77;;;7.93;;
20743;SDS011;56303;52.160;-0.428;2023-05-10T04:17:57;16.63;;;7.93;;
20743;SDS011;56303;52.160;-0.428;2023-05-10T04:20:24;16.07;;;7.90;;
20743;SDS011;56303;52.160;-0.428;2023-05-10T04:22:51;13.57;;;7.47;;
20743;SDS011;56303;52.160;-0.428;2023-05-10T04:25:18;13.90;;;8.10;;
20743;SDS011;56303;52.160;-0.428;2023-05-10T04:27:44;13.63;;;8.13;;
20743;SDS011;56303;52.160;-0.428;2023-05-10T04:30:11;12.03;;;7.90;;
20743;SDS011;56303;52.160;-0.428;2023-05-10T04:32:38;15.60;;;9.17;;
20743;SDS011;56303;52.160;-0.428;2023-05-10T04:35:05;16.30;;;8.77;;
20743;SDS011;56303;52.160;-0.428;2023-05-10T04:37:32;13.63;;;7.87;;
20743;SDS011;56303;52.160;-0.428;2023-05-10T04:39:59;18.60;;;8.77;;
20743;SDS011;56303;52.160;-0.428;2023-05-10T04:42:26;16.27;;;9.33;;
20743;SDS011;56303;52.160;-0.428;2023-05-10T04:44:53;16.30;;;9.47;;
20743;SDS011;56303;52.160;-0.428;2023-05-10T04:47:20;14.80;;;9.13;;
20743;SDS011;56303;52.160;-0.428;2023-05-10T04:49:46;18.20;;;10.00;;
20743;SDS011;56303;52.160;-0.428;2023-05-10T04:52:13;14.90;;;10.13;;
20743;SDS011;56303;52.160;-0.428;2023-05-10T04:54:42;17.10;;;10.83;;
20743;SDS011;56303;52.160;-0.428;2023-05-10T04:57:09;18.97;;;9.60;;
20743;SDS011;56303;52.160;-0.428;2023-05-10T04:59:36;16.40;;;11.20;;
20743;SDS011;56303;52.160;-0.428;2023-05-10T05:02:03;16.47;;;9.67;;
20743;SDS011;56303;52.160;-0.428;2023-05-10T05:04:31;18.53;;;9.97;;
20743;SDS011;56303;52.160;-0.428;2023-05-10T05:06:58;16.77;;;9.87;;
20743;SDS011;56303;52.160;-0.428;2023-05-10T05:09:25;19.67;;;9.37;;
20743;SDS011;56303;52.160;-0.428;2023-05-10T05:11:52;18.23;;;10.67;;
20743;SDS011;56303;52.160;-0.428;2023-05-10T05:14:19;19.43;;;9.23;;
20743;SDS011;56303;52.160;-0.428;2023-05-10T05:16:47;19.33;;;10.00;;
20743;SDS011;56303;52.160;-0.428;2023-05-10T05:19:13;17.90;;;10.40;;
20743;SDS011;56303;52.160;-0.428;2023-05-10T05:21:40;18.13;;;10.03;;
20743;SDS011;56303;52.160;-0.428;2023-05-10T05:24:07;21.50;;;11.23;;
20743;SDS011;56303;52.160;-0.428;2023-05-10T05:26:34;22.07;;;10.27;;
20743;SDS011;56303;52.160;-0.428;2023-05-10T05:29:01;18.27;;;10.80;;
20743;SDS011;56303;52.160;-0.428;2023-05-10T05:31:28;22.03;;;11.07;;
20743;SDS011;56303;52.160;-0.428;2023-05-10T05:33:55;15.57;;;10.37;;
20743;SDS011;56303;52.160;-0.428;2023-05-10T05:36:22;15.50;;;9.50;;
20743;SDS011;56303;52.160;-0.428;2023-05-10T05:38:48;14.47;;;9.23;;
20743;SDS011;56303;52.160;-0.428;2023-05-10T05:41:15;16.33;;;10.70;;
20743;SDS011;56303;52.160;-0.428;2023-05-10T05:43:42;16.33;;;9.83;;
20743;SDS011;56303;52.160;-0.428;2023-05-10T05:46:09;14.73;;;9.23;;
20743;SDS011;56303;52.160;-0.428;2023-05-10T05:48:36;15.27;;;9.53;;
20743;SDS011;56303;52.160;-0.428;2023-05-10T05:51:02;15.57;;;9.93;;
20743;SDS011;56303;52.160;-0.428;2023-05-10T05:53:32;18.43;;;10.77;;
20743;SDS011;56303;52.160;-0.428;2023-05-10T05:55:59;17.13;;;9.20;;
20743;SDS011;56303;52.160;-0.428;2023-05-10T05:58:26;18.87;;;9.73;;
20743;SDS011;56303;52.160;-0.428;2023-05-10T06:00:53;15.50;;;9.83;;
20743;SDS011;56303;52.160;-0.428;2023-05-10T06:03:20;15.17;;;10.13;;
20743;SDS011;56303;52.160;-0.428;2023-05-10T06:05:47;14.63;;;9.13;;
20743;SDS011;56303;52.160;-0.428;2023-05-10T06:08:14;20.87;;;9.43;;
20743;SDS011;56303;52.160;-0.428;2023-05-10T06:10:41;14.20;;;8.87;;
20743;SDS011;56303;52.160;-0.428;2023-05-10T06:13:08;12.67;;;8.27;;
20743;SDS011;56303;52.160;-0.428;2023-05-10T06:15:35;13.77;;;8.33;;
20743;SDS011;56303;52.160;-0.428;2023-05-10T06:18:02;10.73;;;7.30;;
20743;SDS011;56303;52.160;-0.428;2023-05-10T06:20:29;10.57;;;7.00;;
20743;SDS011;56303;52.160;-0.428;2023-05-10T06:22:57;9.53;;;6.47;;
20743;SDS011;56303;52.160;-0.428;2023-05-10T06:25:25;9.63;;;6.73;;
20743;SDS011;56303;52.160;-0.428;2023-05-10T06:27:52;8.27;;;6.27;;
20743;SDS011;56303;52.160;-0.428;2023-05-10T06:30:24;11.07;;;6.63;;
20743;SDS011;56303;52.160;-0.428;2023-05-10T06:32:55;7.07;;;5.70;;
20743;SDS011;56303;52.160;-0.428;2023-05-10T06:35:22;8.47;;;6.13;;
20743;SDS011;56303;52.160;-0.428;2023-05-10T06:37:49;11.47;;;6.23;;
20743;SDS011;56303;52.160;-0.428;2023-05-10T06:40:17;9.70;;;6.10;;
20743;SDS011;56303;52.160;-0.428;2023-05-10T06:42:44;8.57;;;6.20;;
20743;SDS011;56303;52.160;-0.428;2023-05-10T06:45:12;8.47;;;5.20;;
20743;SDS011;56303;52.160;-0.428;2023-05-10T06:47:41;9.83;;;5.90;;
20743;SDS011;56303;52.160;-0.428;2023-05-10T06:50:08;8.17;;;5.43;;
20743;SDS011;56303;52.160;-0.428;2023-05-10T06:52:35;8.37;;;5.73;;
20743;SDS011;56303;52.160;-0.428;2023-05-10T06:55:03;7.57;;;5.50;;
20743;SDS011;56303;52.160;-0.428;2023-05-10T06:57:31;9.17;;;5.37;;
20743;SDS011;56303;52.160;-0.428;2023-05-10T06:59:58;7.77;;;5.20;;
20743;SDS011;56303;52.160;-0.428;2023-05-10T07:02:25;9.17;;;5.37;;
20743;SDS011;56303;52.160;-0.428;2023-05-10T07:04:52;10.43;;;5.40;;
20743;SDS011;56303;52.160;-0.428;2023-05-10T07:07:20;9.70;;;5.30;;
20743;SDS011;56303;52.160;-0.428;2023-05-10T07:09:47;11.50;;;5.50;;
20743;SDS011;56303;52.160;-0.428;2023-05-10T07:12:16;13.27;;;5.30;;
20743;SDS011;56303;52.160;-0.428;2023-05-10T07:14:42;7.57;;;5.17;;
20743;SDS011;56303;52.160;-0.428;2023-05-10T07:17:09;9.50;;;5.30;;
20743;SDS011;56303;52.160;-0.428;2023-05-10T07:19:36;10.87;;;5.83;;
20743;SDS011;56303;52.160;-0.428;2023-05-10T07:22:03;8.20;;;5.03;;
20743;SDS011;56303;52.160;-0.428;2023-05-10T07:24:32;8.70;;;5.03;;
20743;SDS011;56303;52.160;-0.428;2023-05-10T07:27:00;10.13;;;5.60;;
20743;SDS011;56303;52.160;-0.428;2023-05-10T07:29:27;10.27;;;5.53;;
20743;SDS011;56303;52.160;-0.428;2023-05-10T07:31:55;9.47;;;4.83;;
20743;SDS011;56303;52.160;-0.428;2023-05-10T07:34:24;8.70;;;4.70;;
20743;SDS011;56303;52.160;-0.428;2023-05-10T07:36:51;8.97;;;4.90;;
20743;SDS011;56303;52.160;-0.428;2023-05-10T07:39:19;8.63;;;4.70;;
20743;SDS011;56303;52.160;-0.428;2023-05-10T07:41:53;10.57;;;5.07;;
20743;SDS011;56303;52.160;-0.428;2023-05-10T07:44:20;9.20;;;4.60;;
20743;SDS011;56303;52.160;-0.428;2023-05-10T07:46:47;9.50;;;5.17;;
20743;SDS011;56303;52.160;-0.428;2023-05-10T07:49:14;11.17;;;4.97;;
20743;SDS011;56303;52.160;-0.428;2023-05-10T07:51:42;10.83;;;4.80;;
20743;SDS011;56303;52.160;-0.428;2023-05-10T07:54:09;8.43;;;4.10;;
20743;SDS011;56303;52.160;-0.428;2023-05-10T07:56:36;8.10;;;4.30;;
20743;SDS011;56303;52.160;-0.428;2023-05-10T07:59:03;9.03;;;5.07;;
20743;SDS011;56303;52.160;-0.428;2023-05-10T08:01:33;8.53;;;4.57;;
20743;SDS011;56303;52.160;-0.428;2023-05-10T08:04:00;12.50;;;4.60;;
20743;SDS011;56303;52.160;-0.428;2023-05-10T08:06:28;10.40;;;4.57;;
20743;SDS011;56303;52.160;-0.428;2023-05-10T08:08:56;9.23;;;4.10;;
20743;SDS011;56303;52.160;-0.428;2023-05-10T08:11:23;6.33;;;3.30;;
20743;SDS011;56303;52.160;-0.428;2023-05-10T08:13:52;11.30;;;4.93;;
20743;SDS011;56303;52.160;-0.428;2023-05-10T08:16:19;7.97;;;3.57;;
20743;SDS011;56303;52.160;-0.428;2023-05-10T08:18:46;7.43;;;3.33;;
20743;SDS011;56303;52.160;-0.428;2023-05-10T08:21:13;7.17;;;3.67;;
20743;SDS011;56303;52.160;-0.428;2023-05-10T08:23:41;7.53;;;4.00;;
20743;SDS011;56303;52.160;-0.428;2023-05-10T08:26:10;9.03;;;3.63;;
20743;SDS011;56303;52.160;-0.428;2023-05-10T08:28:38;8.10;;;3.47;;
20743;SDS011;56303;52.160;-0.428;2023-05-10T08:31:05;7.47;;;4.17;;
20743;SDS011;56303;52.160;-0.428;2023-05-10T08:33:32;10.37;;;3.53;;
20743;SDS011;56303;52.160;-0.428;2023-05-10T08:35:59;11.70;;;3.67;;
20743;SDS011;56303;52.160;-0.428;2023-05-10T08:38:26;8.00;;;3.10;;
20743;SDS011;56303;52.160;-0.428;2023-05-10T08:40:53;9.27;;;3.57;;
20743;SDS011;56303;52.160;-0.428;2023-05-10T08:43:28;11.10;;;4.70;;
20743;SDS011;56303;52.160;-0.428;2023-05-10T08:45:56;8.37;;;3.10;;
20743;SDS011;56303;52.160;-0.428;2023-05-10T08:48:29;8.47;;;3.60;;
20743;SDS011;56303;52.160;-0.428;2023-05-10T08:50:58;7.90;;;3.67;;
20743;SDS011;56303;52.160;-0.428;2023-05-10T08:53:27;9.80;;;4.03;;
20743;SDS011;56303;52.160;-0.428;2023-05-10T08:55:57;7.13;;;3.83;;
20743;SDS011;56303;52.160;-0.428;2023-05-10T08:58:24;8.07;;;3.57;;
20743;SDS011;56303;52.160;-0.428;2023-05-10T09:00:52;8.17;;;4.00;;
20743;SDS011;56303;52.160;-0.428;2023-05-10T09:03:20;9.30;;;3.30;;
20743;SDS011;56303;52.160;-0.428;2023-05-10T09:05:47;9.50;;;3.30;;
20743;SDS011;56303;52.160;-0.428;2023-05-10T09:08:15;8.37;;;3.40;;
20743;SDS011;56303;52.160;-0.428;2023-05-10T09:10:43;7.37;;;2.93;;
20743;SDS011;56303;52.160;-0.428;2023-05-10T09:13:13;5.90;;;2.40;;
20743;SDS011;56303;52.160;-0.428;2023-05-10T09:15:43;6.97;;;2.53;;
20743;SDS011;56303;52.160;-0.428;2023-05-10T09:18:11;5.67;;;2.87;;
20743;SDS011;56303;52.160;-0.428;2023-05-10T09:20:38;6.70;;;2.97;;
20743;SDS011;56303;52.160;-0.428;2023-05-10T09:23:06;8.23;;;2.40;;
20743;SDS011;56303;52.160;-0.428;2023-05-10T09:25:33;5.53;;;2.43;;
20743;SDS011;56303;52.160;-0.428;2023-05-10T09:28:00;4.27;;;2.20;;
20743;SDS011;56303;52.160;-0.428;2023-05-10T09:30:28;7.17;;;2.80;;
20743;SDS011;56303;52.160;-0.428;2023-05-10T09:32:57;7.57;;;3.00;;
20743;SDS011;56303;52.160;-0.428;2023-05-10T09:35:26;6.33;;;1.93;;
20743;SDS011;56303;52.160;-0.428;2023-05-10T09:37:56;5.90;;;1.90;;
20743;SDS011;56303;52.160;-0.428;2023-05-10T09:40:24;6.07;;;2.13;;
20743;SDS011;56303;52.160;-0.428;2023-05-10T09:42:57;7.20;;;2.73;;
20743;SDS011;56303;52.160;-0.428;2023-05-10T09:45:28;4.47;;;2.63;;
20743;SDS011;56303;52.160;-0.428;2023-05-10T09:47:56;5.30;;;2.40;;
20743;SDS011;56303;52.160;-0.428;2023-05-10T09:50:25;5.87;;;2.30;;
20743;SDS011;56303;52.160;-0.428;2023-05-10T09:52:58;6.97;;;2.60;;
20743;SDS011;56303;52.160;-0.428;2023-05-10T09:58:07;5.23;;;2.30;;
20743;SDS011;56303;52.160;-0.428;2023-05-10T10:00:37;5.93;;;1.90;;
20743;SDS011;56303;52.160;-0.428;2023-05-10T10:03:15;5.03;;;2.40;;
20743;SDS011;56303;52.160;-0.428;2023-05-10T10:05:46;4.90;;;1.93;;
20743;SDS011;56303;52.160;-0.428;2023-05-10T10:08:15;5.87;;;2.23;;
20743;SDS011;56303;52.160;-0.428;2023-05-10T10:10:42;4.50;;;2.00;;
20743;SDS011;56303;52.160;-0.428;2023-05-10T10:13:12;4.43;;;2.07;;
20743;SDS011;56303;52.160;-0.428;2023-05-10T10:15:40;4.73;;;2.00;;
20743;SDS011;56303;52.160;-0.428;2023-05-10T10:18:12;4.93;;;1.80;;
20743;SDS011;56303;52.160;-0.428;2023-05-10T10:20:41;4.67;;;1.97;;
20743;SDS011;56303;52.160;-0.428;2023-05-10T10:23:08;3.87;;;2.10;;
20743;SDS011;56303;52.160;-0.428;2023-05-10T10:25:35;4.40;;;2.37;;
20743;SDS011;56303;52.160;-0.428;2023-05-10T10:28:19;5.40;;;2.40;;
20743;SDS011;56303;52.160;-0.428;2023-05-10T10:30:49;4.10;;;2.50;;
20743;SDS011;56303;52.160;-0.428;2023-05-10T10:36:13;8.77;;;3.50;;
20743;SDS011;56303;52.160;-0.428;2023-05-10T10:41:33;5.03;;;2.83;;
20743;SDS011;56303;52.160;-0.428;2023-05-10T10:44:25;7.93;;;3.30;;
20743;SDS011;56303;52.160;-0.428;2023-05-10T10:52:26;7.57;;;2.33;;
20743;SDS011;56303;52.160;-0.428;2023-05-10T10:55:06;8.13;;;3.00;;
20743;SDS011;56303;52.160;-0.428;2023-05-10T11:00:25;7.30;;;2.67;;
20743;SDS011;56303;52.160;-0.428;2023-05-10T11:02:58;3.87;;;2.00;;
20743;SDS011;56303;52.160;-0.428;2023-05-10T11:08:27;4.27;;;1.93;;
20743;SDS011;56303;52.160;-0.428;2023-05-10T11:21:23;5.17;;;2.10;;
20743;SDS011;56303;52.160;-0.428;2023-05-10T11:23:51;3.57;;;1.90;;
20743;SDS011;56303;52.160;-0.428;2023-05-10T11:26:45;5.80;;;1.60;;
20743;SDS011;56303;52.160;-0.428;2023-05-10T11:29:12;3.37;;;1.60;;
20743;SDS011;56303;52.160;-0.428;2023-05-10T11:31:43;3.47;;;1.97;;
20743;SDS011;56303;52.160;-0.428;2023-05-10T11:34:23;7.53;;;2.60;;
20743;SDS011;56303;52.160;-0.428;2023-05-10T11:36:52;6.73;;;3.10;;
20743;SDS011;56303;52.160;-0.428;2023-05-10T11:39:20;4.80;;;2.00;;
20743;SDS011;56303;52.160;-0.428;2023-05-10T11:41:48;4.43;;;1.80;;
20743;SDS011;56303;52.160;-0.428;2023-05-10T11:44:16;8.00;;;2.30;;
20743;SDS011;56303;52.160;-0.428;2023-05-10T11:46:43;7.13;;;2.00;;
20743;SDS011;56303;52.160;-0.428;2023-05-10T11:49:10;4.07;;;1.90;;
20743;SDS011;56303;52.160;-0.428;2023-05-10T11:51:37;3.87;;;1.60;;
20743;SDS011;56303;52.160;-0.428;2023-05-10T11:54:06;3.40;;;2.00;;
20743;SDS011;56303;52.160;-0.428;2023-05-10T11:56:37;7.83;;;2.67;;
20743;SDS011;56303;52.160;-0.428;2023-05-10T11:59:06;5.27;;;2.60;;
20743;SDS011;56303;52.160;-0.428;2023-05-10T12:01:34;5.33;;;2.27;;
20743;SDS011;56303;52.160;-0.428;2023-05-10T12:04:01;4.67;;;2.20;;
20743;SDS011;56303;52.160;-0.428;2023-05-10T12:06:32;6.20;;;2.20;;
20743;SDS011;56303;52.160;-0.428;2023-05-10T12:09:06;4.80;;;2.27;;
20743;SDS011;56303;52.160;-0.428;2023-05-10T12:11:36;3.40;;;1.50;;
20743;SDS011;56303;52.160;-0.428;2023-05-10T12:14:08;4.33;;;1.73;;
20743;SDS011;56303;52.160;-0.428;2023-05-10T12:16:36;4.83;;;2.00;;
20743;SDS011;56303;52.160;-0.428;2023-05-10T12:19:03;4.40;;;1.77;;
20743;SDS011;56303;52.160;-0.428;2023-05-10T12:21:32;4.10;;;2.10;;
20743;SDS011;56303;52.160;-0.428;2023-05-10T12:24:01;4.33;;;1.60;;
20743;SDS011;56303;52.160;-0.428;2023-05-10T12:26:32;4.50;;;1.67;;
20743;SDS011;56303;52.160;-0.428;2023-05-10T12:29:17;3.63;;;1.70;;
20743;SDS011;56303;52.160;-0.428;2023-05-10T12:31:48;3.03;;;1.50;;
20743;SDS011;56303;52.160;-0.428;2023-05-10T12:34:25;3.87;;;1.73;;
20743;SDS011;56303;52.160;-0.428;2023-05-10T12:37:03;3.47;;;1.63;;
20743;SDS011;56303;52.160;-0.428;2023-05-10T12:39:43;3.27;;;1.80;;
20743;SDS011;56303;52.160;-0.428;2023-05-10T12:42:12;6.13;;;2.17;;
20743;SDS011;56303;52.160;-0.428;2023-05-10T12:44:39;3.83;;;2.03;;
20743;SDS011;56303;52.160;-0.428;2023-05-10T12:47:06;3.73;;;2.07;;
20743;SDS011;56303;52.160;-0.428;2023-05-10T12:49:33;4.83;;;2.20;;
20743;SDS011;56303;52.160;-0.428;2023-05-10T12:52:00;4.43;;;2.00;;
20743;SDS011;56303;52.160;-0.428;2023-05-10T12:54:27;3.10;;;2.00;;
20743;SDS011;56303;52.160;-0.428;2023-05-10T12:56:54;3.27;;;1.60;;
20743;SDS011;56303;52.160;-0.428;2023-05-10T12:59:21;6.70;;;2.50;;
20743;SDS011;56303;52.160;-0.428;2023-05-10T13:01:49;3.57;;;1.50;;
20743;SDS011;56303;52.160;-0.428;2023-05-10T13:04:16;3.80;;;2.00;;
20743;SDS011;56303;52.160;-0.428;2023-05-10T13:06:42;2.73;;;1.80;;
20743;SDS011;56303;52.160;-0.428;2023-05-10T13:09:09;2.83;;;1.60;;
20743;SDS011;56303;52.160;-0.428;2023-05-10T13:11:36;2.50;;;1.33;;
20743;SDS011;56303;52.160;-0.428;2023-05-10T13:14:03;1.70;;;1.13;;
20743;SDS011;56303;52.160;-0.428;2023-05-10T13:16:32;2.23;;;1.60;;
20743;SDS011;56303;52.160;-0.428;2023-05-10T13:19:06;2.33;;;1.40;;
20743;SDS011;56303;52.160;-0.428;2023-05-10T13:21:33;3.10;;;1.50;;
20743;SDS011;56303;52.160;-0.428;2023-05-10T13:24:00;4.10;;;1.80;;
20743;SDS011;56303;52.160;-0.428;2023-05-10T13:26:28;2.77;;;2.00;;
20743;SDS011;56303;52.160;-0.428;2023-05-10T13:28:55;3.27;;;1.30;;
20743;SDS011;56303;52.160;-0.428;2023-05-10T13:31:22;4.17;;;1.97;;
20743;SDS011;56303;52.160;-0.428;2023-05-10T13:33:48;4.90;;;1.87;;
20743;SDS011;56303;52.160;-0.428;2023-05-10T13:36:15;2.53;;;1.60;;
20743;SDS011;56303;52.160;-0.428;2023-05-10T13:38:42;5.33;;;1.60;;
20743;SDS011;56303;52.160;-0.428;2023-05-10T13:41:09;3.03;;;1.43;;
20743;SDS011;56303;52.160;-0.428;2023-05-10T13:43:37;1.97;;;1.43;;
20743;SDS011;56303;52.160;-0.428;2023-05-10T13:46:03;2.03;;;1.53;;
20743;SDS011;56303;52.160;-0.428;2023-05-10T13:48:30;2.43;;;1.57;;
20743;SDS011;56303;52.160;-0.428;2023-05-10T13:50:57;2.63;;;1.40;;
20743;SDS011;56303;52.160;-0.428;2023-05-10T13:53:24;2.17;;;1.30;;
20743;SDS011;56303;52.160;-0.428;2023-05-10T13:55:51;4.10;;;1.80;;
20743;SDS011;56303;52.160;-0.428;2023-05-10T13:58:18;3.30;;;1.60;;
20743;SDS011;56303;52.160;-0.428;2023-05-10T14:00:45;2.37;;;1.40;;
20743;SDS011;56303;52.160;-0.428;2023-05-10T14:03:12;3.57;;;1.40;;
20743;SDS011;56303;52.160;-0.428;2023-05-10T14:05:39;4.03;;;1.30;;
20743;SDS011;56303;52.160;-0.428;2023-05-10T14:08:05;1.80;;;1.20;;
20743;SDS011;56303;52.160;-0.428;2023-05-10T14:10:33;3.33;;;1.57;;
20743;SDS011;56303;52.160;-0.428;2023-05-10T14:13:00;3.03;;;1.40;;
20743;SDS011;56303;52.160;-0.428;2023-05-10T14:15:27;3.00;;;1.60;;
20743;SDS011;56303;52.160;-0.428;2023-05-10T14:17:54;3.07;;;1.40;;
20743;SDS011;56303;52.160;-0.428;2023-05-10T14:20:21;1.90;;;1.23;;
20743;SDS011;56303;52.160;-0.428;2023-05-10T14:22:47;3.37;;;1.87;;
20743;SDS011;56303;52.160;-0.428;2023-05-10T14:25:14;1.33;;;1.10;;
20743;SDS011;56303;52.160;-0.428;2023-05-10T14:27:41;2.07;;;1.10;;
20743;SDS011;56303;52.160;-0.428;2023-05-10T14:30:08;2.17;;;1.33;;
20743;SDS011;56303;52.160;-0.428;2023-05-10T14:32:36;2.40;;;1.40;;
20743;SDS011;56303;52.160;-0.428;2023-05-10T14:35:03;2.07;;;1.10;;
20743;SDS011;56303;52.160;-0.428;2023-05-10T14:37:32;2.73;;;1.33;;
20743;SDS011;56303;52.160;-0.428;2023-05-10T14:39:59;2.10;;;1.40;;
20743;SDS011;56303;52.160;-0.428;2023-05-10T14:42:26;3.00;;;1.20;;
20743;SDS011;56303;52.160;-0.428;2023-05-10T14:44:54;2.50;;;1.60;;
20743;SDS011;56303;52.160;-0.428;2023-05-10T14:47:21;2.40;;;1.23;;
20743;SDS011;56303;52.160;-0.428;2023-05-10T14:49:49;1.73;;;1.10;;
20743;SDS011;56303;52.160;-0.428;2023-05-10T14:52:17;3.40;;;1.20;;
20743;SDS011;56303;52.160;-0.428;2023-05-10T14:54:43;4.23;;;2.00;;
20743;SDS011;56303;52.160;-0.428;2023-05-10T14:57:10;2.73;;;1.40;;
20743;SDS011;56303;52.160;-0.428;2023-05-10T14:59:37;2.43;;;1.07;;
20743;SDS011;56303;52.160;-0.428;2023-05-10T15:02:05;3.00;;;1.40;;
20743;SDS011;56303;52.160;-0.428;2023-05-10T15:04:34;2.90;;;1.23;;
20743;SDS011;56303;52.160;-0.428;2023-05-10T15:07:02;3.40;;;1.43;;
20743;SDS011;56303;52.160;-0.428;2023-05-10T15:09:29;2.17;;;1.40;;
20743;SDS011;56303;52.160;-0.428;2023-05-10T15:11:56;4.40;;;1.70;;
20743;SDS011;56303;52.160;-0.428;2023-05-10T15:14:23;3.13;;;1.30;;
20743;SDS011;56303;52.160;-0.428;2023-05-10T15:16:49;5.57;;;1.90;;
20743;SDS011;56303;52.160;-0.428;2023-05-10T15:19:16;5.43;;;2.00;;
20743;SDS011;56303;52.160;-0.428;2023-05-10T15:21:43;6.83;;;1.73;;
20743;SDS011;56303;52.160;-0.428;2023-05-10T15:24:10;2.30;;;1.33;;
20743;SDS011;56303;52.160;-0.428;2023-05-10T15:26:38;1.50;;;1.10;;